Persoonlijke zone
Imprimable
Brugge, 15/10/2017, BEL - Great Bruges Marathon
Rapportenlijst > Marathon - Resultaat
Zoek: Bladzijde: [1] 2 3 4 5
2191 Inputs
 
Klachten worden niet meer geaccepteerd. Resultaten zijn definitief.
Categorie
PosNrNaamLeef.IOCTijdTkmGem.PlaatsNaamGemeente
Vos photos gr?ce ? Sportograf1.1DIAZ Rodriguez Alexander38BEL2:25:203:27 17.421M35
Vos photos gr?ce ? Sportograf2.666DECOCK Wouter34BEL2:32:173:37 16.631SEHBRUGGE
Vos photos gr?ce ? Sportograf3.205BEKE Rutger40BEL2:36:503:43 16.141M40HEVERLEE
Vos photos gr?ce ? Sportograf4.642DEBEVERE Tomas35BEL2:37:573:45 16.032M35SINT-MICHIELS
Vos photos gr?ce ? Sportograf5.1315LEYS Dries39BEL2:38:263:46 15.983M35BRUGGE
Vos photos gr?ce ? Sportograf6.1543OPLINUS Goewaart33BEL2:40:463:49 15.752SEHROESELARE
Vos photos gr?ce ? Sportograf7.614DE VILLE Frank37BEL2:41:493:51 15.654M35MEERBEKE
Vos photos gr?ce ? Sportograf8.1060HAEGEMAN Benoît32BEL2:44:253:54 15.403SEHARQUENNES
Vos photos gr?ce ? Sportograf9.363CASIER Gino45BEL2:44:303:54 15.391M45WILRIJK
Vos photos gr?ce ? Sportograf10.1721RUMPHAKWAEN Nid49BEL2:45:403:56 15.282M45GRIMBERGEN
Vos photos gr?ce ? Sportograf11.1275LEBLANC Renaud32BEL2:45:593:57 15.254SEHVILLERS LA TOUR
Vos photos gr?ce ? Sportograf12.1790SIMOENS Bart40BEL2:45:593:57 15.252M40DWORP
Vos photos gr?ce ? Sportograf13.467CRETON Mickaël43FRA2:46:383:57 15.193M40CAPPELLE LA GRANDE
Vos photos gr?ce ? Sportograf14.1614POLLENTIER Björn38BEL2:46:503:58 15.185M35VEURNE
Vos photos gr?ce ? Sportograf15.294BOUDIER Stephane46FRA2:46:593:58 15.163M45OZOIR LA FERRIERE
Vos photos gr?ce ? Sportograf16.26YSEBAERT Bart39BEL2:47:383:59 15.106M35ASSEBROEK
Vos photos gr?ce ? Sportograf17.1720RUBLIN Eric42FRA2:48:234:00 15.044M40WARHEM
Vos photos gr?ce ? Sportograf18.517DE CALUWE Cedric42BEL2:48:504:01 15.005M40SINT-ANDRIES
Vos photos gr?ce ? Sportograf19.2263VERLET Benjamin38BEL2:49:064:01 14.977M35OOSTENDE
Vos photos gr?ce ? Sportograf20.1090HELLEMANS Tom36BEL2:49:254:01 14.948M35BASSEVELDE
Vos photos gr?ce ? Sportograf21.1886TELECHER Eladio58ESP2:49:454:02 14.911M55ATTICHES
Vos photos gr?ce ? Sportograf22.816DHAENEKINT Pieterjan28BEL2:50:184:03 14.875SEHBRUGGE
Vos photos gr?ce ? Sportograf23.1887TEMPELS Kris43BEL2:51:464:05 14.746M40BRUGGE SINT-MICHIELS
Vos photos gr?ce ? Sportograf24.1846STIEREMANS Pierre24FRA2:51:584:05 14.726SEHLA ROCHE-SUR-FORON
Vos photos gr?ce ? Sportograf25.154AUTIN Frederic41FRA2:53:134:07 14.627M40LAMBERSART
Vos photos gr?ce ? Sportograf26.5DHAENEKINT Stijn36BEL2:53:174:07 14.619M35BRUGGE
Vos photos gr?ce ? Sportograf27.1555PAQUES Thierry51BEL2:53:234:07 14.601M50BEAUFAYS
Vos photos gr?ce ? Sportograf28.1664RAVYSE Stijn45BEL2:53:394:07 14.584M45DE PINTE
Vos photos gr?ce ? Sportograf29.1301LEMOINE Samuel45BEL2:53:544:08 14.565M45TOURNAI
Vos photos gr?ce ? Sportograf30.350CALLIAUW Tim33BEL2:53:594:08 14.557SEHSINT-KRUIS
Vos photos gr?ce ? Sportograf31.1175JANSSENS Franky41BEL2:54:144:08 14.538M40TEMSE
Vos photos gr?ce ? Sportograf32.986GENNART Frederic36BEL2:54:244:08 14.5210M35HEIST-AAN-ZEE
Vos photos gr?ce ? Sportograf33.2127VANDEN EYNDE Pascal36BEL2:55:174:10 14.4411M35AUDERGHRM
Vos photos gr?ce ? Sportograf34.1934URBAIN Pascal41BEL2:55:404:10 14.419M40WONDELGEM
Vos photos gr?ce ? Sportograf35.1240LAMBERT Birger34BEL2:55:494:11 14.408SEHBLANKENBERGE
Vos photos gr?ce ? Sportograf36.524DE COENE Peter42BEL2:56:024:11 14.3810M40OPHASSELT
Vos photos gr?ce ? Sportograf37.1965VAN DE KEERE Tom31BEL2:56:164:11 14.369SEHDAMME
Vos photos gr?ce ? Sportograf38.729FDEMEY Soetkin33BEL2:56:594:12 14.311SEFBRUXELLES
Vos photos gr?ce ? Sportograf39.641DEBAKKER Niki42BEL2:57:094:12 14.2911M40KLUISBERGEN
Vos photos gr?ce ? Sportograf40.2082VAN RYSSELBERGHE Johan45BEL2:57:104:12 14.296M45LAARNE
Vos photos gr?ce ? Sportograf41.1938VALCKE Tobias31BEL2:57:114:12 14.2910SEHSINT-ANDRIES BRUGGE
Vos photos gr?ce ? Sportograf42.1202KEMPENEERS Cedric38BEL2:57:264:13 14.2712M35BEYNE-HEUSAY
Vos photos gr?ce ? Sportograf43.2195VANHULLE Tijs31BEL2:57:344:13 14.2611SEHSINT-MICHIELS
Vos photos gr?ce ? Sportograf44.41DESCAMPS Francis40BEL2:57:434:13 14.2512M40ROESELARE
Vos photos gr?ce ? Sportograf45.1009GOBBE Nicolas31BEL2:57:584:14 14.2312SEHTOURNAI
Vos photos gr?ce ? Sportograf46.1354LUST Maxime26BEL2:58:004:14 14.2213SEHGRANDRIEU
Vos photos gr?ce ? Sportograf47.1195JOYE Maarten37BEL2:58:024:14 14.2213M35EVERBEEK
Vos photos gr?ce ? Sportograf48.2389YZEWYN Tim36BEL2:58:044:14 14.2214M35TEMSE
Vos photos gr?ce ? Sportograf49.492VAN LEIRSBERGHE Tim Georges36BEL2:58:094:14 14.2115M35BRUGGE
Vos photos gr?ce ? Sportograf50.2305VIFQUIN Christophe45BEL2:58:144:14 14.217M45MOLENBAIX
Vos photos gr?ce ? Sportograf51.534DE DAEL Kevin39BEL2:58:174:14 14.2016M35BEVEREN
Vos photos gr?ce ? Sportograf52.2283VERSCHOREN Senne23BEL2:58:194:14 14.2014SEHHEIST OP DEN BERG
Vos photos gr?ce ? Sportograf53.1787SIERENS Bavo38BEL2:58:264:14 14.1917M35MALDEGEM
Vos photos gr?ce ? Sportograf54.2379WOUTERS Patrick32BEL2:58:284:14 14.1915SEHOVERIJSE
Vos photos gr?ce ? Sportograf55.1032GOOSSENS Christophe30BEL2:58:284:14 14.1916SEHWAASMUNSTER
Vos photos gr?ce ? Sportograf56.58MCCANN Chris48GBR2:58:384:15 14.178M45DUBAI
Vos photos gr?ce ? Sportograf57.1714ROTTIERS Kristof43BEL2:58:414:15 14.1713M40RUISBROEK
Vos photos gr?ce ? Sportograf58.2533TIRI Johan44BEL2:58:414:15 14.1714M40KAPELLE OP DEN BOS
Vos photos gr?ce ? Sportograf59.81SABBE Karel28BEL2:58:424:15 14.1717SEHGENT
Vos photos gr?ce ? Sportograf60.73BRAEKMAN Davy36BEL2:58:464:15 14.1618M35ASSENDE
Vos photos gr?ce ? Sportograf61.1824SPITAELS Benoit34BEL2:58:524:15 14.1518SEHSCHERPENHEUVEL
Vos photos gr?ce ? Sportograf62.2188VANHEE Tom43BEL2:58:564:15 14.1515M40BEERNEM
Vos photos gr?ce ? Sportograf63.714DELHAYE Laurent41FRA2:59:044:15 14.1416M40CATILLON SUR SAMBRE
Vos photos gr?ce ? Sportograf64.1387MALENGÉ Alexandre26FRA2:59:314:16 14.1019SEHVILLENEUVE D'ASCQ
Vos photos gr?ce ? Sportograf65.899ENGELS Robbe25BEL2:59:434:16 14.0920SEHJETTE
Vos photos gr?ce ? Sportograf66.892EMAER Jérôme35BEL2:59:444:16 14.0919M35CALLENELLE
Vos photos gr?ce ? Sportograf67.928FIERENS Frans51BEL2:59:574:16 14.072M50KESSEL-LO
Vos photos gr?ce ? Sportograf68.1394MANTIONE Calogero38BEL3:00:064:17 14.0620M35REBECQ
Vos photos gr?ce ? Sportograf69.1946VAN BAEL Davy33BEL3:00:074:17 14.0621SEHZANDHOVEN
Vos photos gr?ce ? Sportograf70.264BOGAERT Mike35BEL3:01:134:18 13.9721M35BRUGGE
Vos photos gr?ce ? Sportograf71.1710ROSSEEL Paul54BEL3:02:234:20 13.883M50VEURNE
Vos photos gr?ce ? Sportograf72.653DEBURGHGRAEVE Bjorn43BEL3:02:244:20 13.8817M40HOOGLEDE
Vos photos gr?ce ? Sportograf73.493D'AUBIOUL Matthias30BEL3:02:274:20 13.8822SEHLOPPEM
Vos photos gr?ce ? Sportograf74.812DEWISPELAERE Diederik33BEL3:02:404:20 13.8623SEHASSEBROEK
Vos photos gr?ce ? Sportograf75.170BALLEGEER Kurt48BEL3:02:574:21 13.849M45OOSTKAMP
Vos photos gr?ce ? Sportograf76.548DE JAEGER Thibault26BEL3:03:074:21 13.8324SEHSINT-MICHIELS
Vos photos gr?ce ? Sportograf77.1695ROETS Eric47BEL3:03:454:22 13.7810M45BEKKEVOORT
Vos photos gr?ce ? Sportograf78.1812SOENENS Hannes36BEL3:03:464:22 13.7822M35ASSEBROEK
Vos photos gr?ce ? Sportograf79.802DEVRIESE Jimmy48BEL3:04:234:23 13.7311M45KNOKKE-HEIST
Vos photos gr?ce ? Sportograf80.1725RYCKAERT Geert46BEL3:04:274:23 13.7312M45IEPER
Vos photos gr?ce ? Sportograf81.298BOULANGER Eliot32BEL3:05:024:24 13.6825SEHWOLUWE-SAINT-LAMBERT
Vos photos gr?ce ? Sportograf82.42GRYP Servaas44BEL3:05:094:24 13.6718M40IZEGEM
Vos photos gr?ce ? Sportograf83.1211KINS Jeroen30BEL3:05:114:24 13.6726SEHGELUWE
Vos photos gr?ce ? Sportograf84.1539OLDENHOVE Xavier40BEL3:05:394:24 13.6419M40COURT-SAINT-ETIENNE
Vos photos gr?ce ? Sportograf85.1120HOLIN Marc-Antoine35FRA3:05:464:25 13.6323M35SAINT AMAND LES EAUX
Vos photos gr?ce ? Sportograf86.1490MOREEL Merijn42BEL3:05:544:25 13.6220M40SINT-ANDRIES
Vos photos gr?ce ? Sportograf87.2503DEBRABANDERE Amaury48BEL3:05:584:25 13.6113M45BRUXELLES
Vos photos gr?ce ? Sportograf88.1419MASSELUS Gert44BEL3:06:444:26 13.5621M40IEPER
Vos photos gr?ce ? Sportograf89.1151HUYSMANS Koenraad53BEL3:07:004:26 13.544M50GEEL
Vos photos gr?ce ? Sportograf90.1658RAEYMAEKERS Christiaan48BEL3:07:014:26 13.5414M45LIER
Vos photos gr?ce ? Sportograf91.147ANTSON Franck43FRA3:07:064:27 13.5322M40LILLE
Vos photos gr?ce ? Sportograf92.171BALLYN Dries43BEL3:07:174:27 13.5223M40TORHOUT
Vos photos gr?ce ? Sportograf93.851DU BOIS Michaël47BEL3:07:374:27 13.4915M45OPWIJK
Vos photos gr?ce ? Sportograf94.922FERTEIN Benny39BEL3:07:474:28 13.4824M35INGELMUNSTER
Vos photos gr?ce ? Sportograf95.867DUMALIN Nico50BEL3:07:574:28 13.475M50SINT-ANDRIES
Vos photos gr?ce ? Sportograf96.1551PALFI Janos40HUN3:08:014:28 13.4724M40RIEMST
Vos photos gr?ce ? Sportograf97.317BRIAND Sebastien36FRA3:08:114:28 13.4525M35AVELIN
Vos photos gr?ce ? Sportograf98.1135HULPIAU Gerald36BEL3:08:154:28 13.4526M35OOSTENDE
Vos photos gr?ce ? Sportograf99.1803SMIRNOV Serguei35FRA3:08:264:28 13.4427M35BONDUES
Vos photos gr?ce ? Sportograf100.1987VAN DEN BOSSCHE David42BEL3:08:314:29 13.4325M40OPWIJK
Vos photos gr?ce ? Sportograf101.2222VERBEKE Timothée31FRA3:08:384:29 13.4227SEHBRILLON
Vos photos gr?ce ? Sportograf102.64CLAEYS Lorenz26BEL3:08:514:29 13.4128SEHAARTRIJKE
Vos photos gr?ce ? Sportograf103.1967VAN DE PERRE Stefaan41BEL3:08:584:29 13.4026M40MOL
Vos photos gr?ce ? Sportograf104.1392MALVAUX Simon-Pierre21BEL3:08:594:29 13.4029SEHLIMELETTE
Vos photos gr?ce ? Sportograf105.1049GRINBERGS Karlis44LVA3:09:004:29 13.4027M40LEUVEN
Vos photos gr?ce ? Sportograf106.1560PASSCHYN Tim38BEL3:09:154:30 13.3828M35SINT-MICHIELS
Vos photos gr?ce ? Sportograf107.1928TRUYAERT Eddy51BEL3:09:164:30 13.386M50PITTEM
Vos photos gr?ce ? Sportograf108.2499JANSSENS Bart48BEL3:09:324:30 13.3616M45MELSELE
Vos photos gr?ce ? Sportograf109.984GEIRNAERT Saidja46BEL3:09:364:30 13.3517M45SINT ANDRIES
Vos photos gr?ce ? Sportograf110.1667REICHMAN Benjamin33BEL3:09:504:30 13.3430SEHBRUGGE
Vos photos gr?ce ? Sportograf111.2068VAN NIEUWENBORGH Davy35BEL3:09:504:30 13.3429M35OPWIJK
Vos photos gr?ce ? Sportograf112.2280VERRYCKT Bart44BEL3:09:504:30 13.3428M40BRECHT
Vos photos gr?ce ? Sportograf113.1874TAELMAN Bert37BEL3:10:024:31 13.3230M35KESSEL-LO
Vos photos gr?ce ? Sportograf114.1737SANDERS Frederik39BEL3:10:094:31 13.3231M35SINT JORIS
Vos photos gr?ce ? Sportograf115.693DEKENS Danny57BEL3:10:134:31 13.312M55HALEN
Vos photos gr?ce ? Sportograf116.133ALLEMEERSCH Dries37BEL3:10:214:31 13.3032M35ASSEBROEK
Vos photos gr?ce ? Sportograf117.1190JOOS Pauwel51BEL3:10:284:31 13.297M50MALDEGEM
Vos photos gr?ce ? Sportograf118.1461MEULEWATER Stijn35BEL3:10:414:32 13.2833M35OOSTKAMP
Vos photos gr?ce ? Sportograf119.2320VOSSAERT Andy32BEL3:10:464:32 13.2731SEHBEERNEM
Vos photos gr?ce ? Sportograf120.1701RONSE Mathieu27BEL3:10:504:32 13.2732SEHHARELBEKE
Vos photos gr?ce ? Sportograf121.1355LUST Tijs32BEL3:10:514:32 13.2733SEHDRONGEN
Vos photos gr?ce ? Sportograf122.1330LISABETH Xavier41BEL3:10:514:32 13.2729M40SINT-AMANDSBERG
Vos photos gr?ce ? Sportograf123.450COSSE Sebastien42FRA3:10:544:32 13.2630M40SAINT NICOLAS D'ALIERMONT
Vos photos gr?ce ? Sportograf124.1479MISSOUL Frank39BEL3:10:554:32 13.2634M35BRUGGE
Vos photos gr?ce ? Sportograf125.1637PRIAULT Vincent30FRA3:10:574:32 13.2634SEHMOISSY-CRAMAYEL
Vos photos gr?ce ? Sportograf126.1278LEBRUN Julien38FRA3:11:084:32 13.2535M35VALENCIENNES
Vos photos gr?ce ? Sportograf127.1683ROBERT Jean-Sébastien40BEL3:11:154:32 13.2431M40WATERLOO
Vos photos gr?ce ? Sportograf128.192BEAUD Jean-Pierre44FRA3:11:324:33 13.2232M40PARIS
Vos photos gr?ce ? Sportograf129.1747SCHAPMAN Carlos52BEL3:11:444:33 13.208M50KORTEMARK
Vos photos gr?ce ? Sportograf130.2162VANDEVOORDE Pascal50BEL3:11:464:33 13.209M50WERVIK
Vos photos gr?ce ? Sportograf131.1466MICHIELSEN Geert42BEL3:11:474:33 13.2033M40DESTELBERGEN
Vos photos gr?ce ? Sportograf132.434CONTIER Sébastien40FRA3:11:484:33 13.2034M40WIMEREUX
Vos photos gr?ce ? Sportograf133.1299LEMMENS Thomas34BEL3:11:534:33 13.1935SEHHERSELT
Vos photos gr?ce ? Sportograf134.201BEGEYN Thierry53BEL3:11:584:33 13.1910M50BRUGGE
Vos photos gr?ce ? Sportograf135.2209VAN LOKEREN Stijn37BEL3:12:074:34 13.1836M35SINT-PAUWELS
Vos photos gr?ce ? Sportograf136.193FBECK Lieselotte32BEL3:12:074:34 13.182SEFSINT-PAUWELS
Vos photos gr?ce ? Sportograf137.840DONCK Sebastiaan33BEL3:12:264:34 13.1636SEHRUMBEKE
Vos photos gr?ce ? Sportograf138.1751SCHEIRENS Jorge37BEL3:12:294:34 13.1537M35BRUGGE
Vos photos gr?ce ? Sportograf139.1832STAESSENS Luc53BEL3:12:294:34 13.1511M50BISSEGEM
Vos photos gr?ce ? Sportograf140.1825SPOELDERS Kurt47BEL3:12:304:34 13.1518M45ROESELARE
Vos photos gr?ce ? Sportograf141.271BOLLENS Chris57BEL3:12:504:35 13.133M55URSEL
Vos photos gr?ce ? Sportograf142.2317VOETEN Nicolas43FRA3:13:004:35 13.1235M40RONCQ
Vos photos gr?ce ? Sportograf143.1380MAHIEU Lorenzo43BEL3:13:034:35 13.1236M40HARELBEKE
Vos photos gr?ce ? Sportograf144.1249LANDUYT Rafaël54BEL3:13:124:35 13.1012M50SINT-JANS-MOLENBEEK
Vos photos gr?ce ? Sportograf145.865DUJEUX Stephane47BEL3:13:154:35 13.1019M45SINT-KRUIS
Vos photos gr?ce ? Sportograf146.235BILLET Sebastien46FRA3:13:204:35 13.1020M45ZUYDCOOTE
Vos photos gr?ce ? Sportograf147.1765SCHOUPPE Lorenzo24BEL3:13:284:36 13.0937SEHWONTERGEM
Vos photos gr?ce ? Sportograf148.2039VAN HOOLST Jan33BEL3:13:294:36 13.0938SEHMELSELE
Vos photos gr?ce ? Sportograf149.1961VAN DAELE Sam36BEL3:13:324:36 13.0838M35ASSEBROEK
Vos photos gr?ce ? Sportograf150.2138VANDENBUSSCHE Bart32BEL3:13:344:36 13.0839SEHOUDENBURG
Vos photos gr?ce ? Sportograf151.214BERGAN Dan46USA3:13:394:36 13.0721M45SILVERTHORNE
Vos photos gr?ce ? Sportograf152.603DE RUITER Léan32NLD3:13:414:36 13.0740SEHDORDRECHT
Vos photos gr?ce ? Sportograf153.151AUDIENS Arne37BEL3:13:444:36 13.0739M35TISSELT
Vos photos gr?ce ? Sportograf154.579DE MUYNCK Ivan62BEL3:13:454:36 13.071M60URSEL
Vos photos gr?ce ? Sportograf155.1529NOLLET Jeroen31BEL3:13:534:36 13.0641SEHLEDEGEM
Vos photos gr?ce ? Sportograf156.1800SMEKENS Andreas20BEL3:14:044:36 13.0542SEHLEDE
Vos photos gr?ce ? Sportograf157.1699ROGUET Jerome30FRA3:14:064:36 13.0443SEHBROUCKERQUE
Vos photos gr?ce ? Sportograf158.725FDEMEERSSEMAN Marlies29BEL3:14:064:36 13.043SEFWINGENE
Vos photos gr?ce ? Sportograf159.83VAN DAELE Rudy55BEL3:14:114:37 13.044M55SINT-NIKLAAS
Vos photos gr?ce ? Sportograf160.223BERTIER Frank43BEL3:14:194:37 13.0337M40W
Vos photos gr?ce ? Sportograf161.707DELECROIX Loic40FRA3:14:214:37 13.0338M40CAMPHIN EN PEVELE
Vos photos gr?ce ? Sportograf162.84VAN THUYNE Dirk48BEL3:14:214:37 13.0322M45OLSENE
Vos photos gr?ce ? Sportograf163.2103VANACKER Stijn47BEL3:14:244:37 13.0223M45OOSTROZEBEKE
Vos photos gr?ce ? Sportograf164.1429MEAD Jonathan32BEL3:14:434:37 13.0044SEHBRUXELLES
Vos photos gr?ce ? Sportograf165.988GERARD Francois38BEL3:14:544:38 12.9940M35ARLON
Vos photos gr?ce ? Sportograf166.1084HARPIGNY Cedric41BEL3:14:544:38 12.9939M40OBOURG
Vos photos gr?ce ? Sportograf167.1353LUST Eric51BEL3:14:574:38 12.9913M50GRANDRIEU
Vos photos gr?ce ? Sportograf168.2268VERMEERSCH Mathieu30BEL3:14:594:38 12.9945SEHMALDEGEM
Vos photos gr?ce ? Sportograf169.1160JACXSENS Paul42BEL3:15:014:38 12.9840M40BELGIE
Vos photos gr?ce ? Sportograf170.794DETURCK Dieter26BEL3:15:074:38 12.9846SEHOOSTENDE
Vos photos gr?ce ? Sportograf171.2196VANLERBERGHE Nicolas37BEL3:15:124:38 12.9741M35HEIST-AAN-ZEE
Vos photos gr?ce ? Sportograf172.801DEVRIENDT Bjorn37BEL3:15:144:38 12.9742M35GISTEL
Vos photos gr?ce ? Sportograf173.2316VLIETINCK Dany53BEL3:15:214:38 12.9614M50KNOKKE-HEIST
Vos photos gr?ce ? Sportograf174.1331LIVOURY Thomas33FRA3:15:224:38 12.9647SEHBAVINCHOVE
Vos photos gr?ce ? Sportograf175.1134HUBREGHT Bart34BEL3:15:454:39 12.9348SEHSIJSELE
Vos photos gr?ce ? Sportograf176.1924TRATSAERT Robrecht21BEL3:15:464:39 12.9349SEHOUDENBURG
Vos photos gr?ce ? Sportograf177.886EEMAN Pieterjan34BEL3:15:474:39 12.9350SEHHERENT
Vos photos gr?ce ? Sportograf178.1027GOMEZ Xavier43BEL3:15:504:39 12.9341M40BATTICE
Vos photos gr?ce ? Sportograf179.1251LANGSWEIRT Bart53BEL3:15:514:39 12.9315M50IZEGEM
Vos photos gr?ce ? Sportograf180.710DELEU Dominique53BEL3:15:534:39 12.9316M50DILBEEK
Vos photos gr?ce ? Sportograf181.1684ROBIN Olivier45FRA3:15:584:39 12.9224M45SAINT JULIEN DE CONCELLES
Vos photos gr?ce ? Sportograf182.1208KETELS Bram40BEL3:16:044:39 12.9142M40LAUWE
Vos photos gr?ce ? Sportograf183.832DILDICK Andre38BEL3:16:164:40 12.9043M35GISTEL
Vos photos gr?ce ? Sportograf184.323BROUCKE Ivo31BEL3:16:474:40 12.8751SEHKOKSIJDE
Vos photos gr?ce ? Sportograf185.1102HENTZ Denis52FRA3:17:054:41 12.8517M50ARGANCY
Vos photos gr?ce ? Sportograf186.2304VIDALI Marzio46BEL3:17:084:41 12.8425M45WEZEMBEEK OPPEM
Vos photos gr?ce ? Sportograf187.1802SMETS Kurt36BEL3:17:124:41 12.8444M35KORTENBERG
Vos photos gr?ce ? Sportograf188.1389MALFLIET Bram38BEL3:17:134:41 12.8445M35ERPS-KWERPS
Vos photos gr?ce ? Sportograf189.2491WOUTERS Stefaan48BEL3:17:184:41 12.8326M45BUNSBEEK
Vos photos gr?ce ? Sportograf190.621DE VREESE Wim42BEL3:17:274:41 12.8243M40GENT
Vos photos gr?ce ? Sportograf191.2213VANWELDEN Sander27BEL3:17:504:42 12.8052SEHSINT-KRUIS
Vos photos gr?ce ? Sportograf192.522DE COCK Bart32BEL3:17:514:42 12.8053SEHLEMBEKE
Vos photos gr?ce ? Sportograf193.2358WILLE Lieven47BEL3:17:564:42 12.7927M45ARDOOIE
Vos photos gr?ce ? Sportograf194.1746SCHACHT Peter44BEL3:18:094:42 12.7844M40ROOSDAAL
Vos photos gr?ce ? Sportograf195.925FEYEN Thomas42BEL3:18:154:42 12.7745M40ANTWERPEN
Vos photos gr?ce ? Sportograf196.288BOSMANS Bart41BEL3:18:264:43 12.7646M40WIJGMAAL
Vos photos gr?ce ? Sportograf197.2197FVANMAECKELBERGHE Anne43BEL3:18:284:43 12.761F40GOSSELIES
Vos photos gr?ce ? Sportograf198.2530LIONET Sébastien46FRA3:18:294:43 12.7628M45METEREN
Vos photos gr?ce ? Sportograf199.1863SURKIJN Erik52BEL3:18:314:43 12.7518M50HALEN
Vos photos gr?ce ? Sportograf200.1395MARC Nauwynck52BEL3:18:404:43 12.7419M50BRUGGE
Vos photos gr?ce ? Sportograf201.1213KLINKENBERG Christian47BEL3:18:454:43 12.7429M45BAELEN
Vos photos gr?ce ? Sportograf202.738DEPINOY Jeoffrey46FRA3:18:504:43 12.7330M45MÉRIGNIES
Vos photos gr?ce ? Sportograf203.364CASIER Joris51BEL3:19:064:44 12.7220M50BRUGGE
Vos photos gr?ce ? Sportograf204.954FRANKINET Pierre41BEL3:19:084:44 12.7147M40LOUVEIGNE
Vos photos gr?ce ? Sportograf205.1565PAUWELS Gert37BEL3:19:094:44 12.7146M35DESTELBERGEN
Vos photos gr?ce ? Sportograf206.273BOMERÉ Kurt49BEL3:19:164:44 12.7131M45AALTER
Vos photos gr?ce ? Sportograf207.1376MAGERMAN Jo51BEL3:19:164:44 12.7121M50WETTEREN
Vos photos gr?ce ? Sportograf208.2353WIBAILLE Olivier45FRA3:19:184:44 12.7032M45LOCQUIGNOL
Vos photos gr?ce ? Sportograf209.1256LAPEIRRE Wouter39BEL3:19:284:44 12.6947M35BLANKENBERGE
Vos photos gr?ce ? Sportograf210.879DUQUESNE Mathieu34FRA3:19:314:44 12.6954SEHDIEPPE
Vos photos gr?ce ? Sportograf211.1058GUNST Bart46BEL3:19:364:44 12.6833M45LOCHRISTI
Vos photos gr?ce ? Sportograf212.2324VRIJDAGHS Steven43BEL3:19:374:44 12.6848M40OVERIJSE
Vos photos gr?ce ? Sportograf213.1603PIRON Damien43BEL3:19:374:44 12.6849M40BRUXELLES
Vos photos gr?ce ? Sportograf214.424COENEN Pjotr40BEL3:19:404:44 12.6850M40HOBOKEN
Vos photos gr?ce ? Sportograf215.1453MESSELY Frederik25BEL3:19:414:44 12.6855SEHHEULE
Vos photos gr?ce ? Sportograf216.602DE ROY Tim40BEL3:19:434:44 12.6851M40BLAASVELD
Vos photos gr?ce ? Sportograf217.355CAPAN Stijn45BEL3:19:484:45 12.6734M45WAREGEM
Vos photos gr?ce ? Sportograf218.1644PUT Kurt44BEL3:20:014:45 12.6652M40SINT-KRUIS
Vos photos gr?ce ? Sportograf219.657DECAT Jurgen37BEL3:20:024:45 12.6648M35WERVIK
Vos photos gr?ce ? Sportograf220.596DE ROECK Mehdi33BEL3:20:094:45 12.6556SEHHAASDONK
Vos photos gr?ce ? Sportograf221.1952VAN BELLE Serge50BEL3:20:094:45 12.6522M50ZEEBRUGGE
Vos photos gr?ce ? Sportograf222.1622POOT David45FRA3:20:114:45 12.6535M45DUNKERQUE
Vos photos gr?ce ? Sportograf223.1218KONINKX Johan41BEL3:20:184:45 12.6453M40LIER
Vos photos gr?ce ? Sportograf224.580DE NAYER Jan36BEL3:20:204:45 12.6449M35BRECHT
Vos photos gr?ce ? Sportograf225.189BAUDOUX Ludovic39FRA3:20:274:46 12.6350M35VALENCIENNES
Vos photos gr?ce ? Sportograf226.757DEROOSE Frederik37BEL3:20:304:46 12.6351M35KERKHOVE
Vos photos gr?ce ? Sportograf227.1013GOELEN Michel48BEL3:20:384:46 12.6236M45BAAL
Vos photos gr?ce ? Sportograf228.332BUCQUOYE Laurent46BEL3:20:594:46 12.6037M45ASSEBROEK
Vos photos gr?ce ? Sportograf229.143FANDRIES Katrien40BEL3:21:004:46 12.602F40BRUGGE
Vos photos gr?ce ? Sportograf230.1150HUYSMAN Kenny33BEL3:21:034:46 12.5957SEHBRAKEL
Vos photos gr?ce ? Sportograf231.1861STUYTS Yorick28BEL3:21:044:46 12.5958SEHBRUGGE
Vos photos gr?ce ? Sportograf232.1617POLLET Tom42BEL3:21:094:47 12.5954M40HEIST AAN ZEE
Vos photos gr?ce ? Sportograf233.314BRAYE Laurent46BEL3:21:164:47 12.5838M45ESTAIMBOURG
Vos photos gr?ce ? Sportograf234.327BRUNO Vanhorick37BEL3:21:244:47 12.5752M35GENAPPE
Vos photos gr?ce ? Sportograf235.2028VAN GEYTE Jeroen27BEL3:21:444:47 12.5559SEHONKERZELE
Vos photos gr?ce ? Sportograf236.1588PESESSE Matthieu41BEL3:21:454:47 12.5555M40VILVOORDE
Vos photos gr?ce ? Sportograf237.737DEPICKERE Bram27BEL3:21:454:47 12.5560SEHSINT-MICHIELS
Vos photos gr?ce ? Sportograf238.1285LEFEVRE Benoit34BEL3:21:494:47 12.5561SEHGREZ-DOICEAU
Vos photos gr?ce ? Sportograf239.2009VAN DER STEEN Ivan47BEL3:21:514:48 12.5439M45HOOGSTRATEN
Vos photos gr?ce ? Sportograf240.1186JOLY Jean-Marie50BEL3:21:584:48 12.5423M50SORÉE
Vos photos gr?ce ? Sportograf241.1366MAES Maarten34BEL3:22:004:48 12.5362SEHDE KLINGE
Vos photos gr?ce ? Sportograf242.1564PAUL Hadj50BEL3:22:034:48 12.5324M50STREPY BRACQUEGNIES
Vos photos gr?ce ? Sportograf243.1232LAFARGE Tom26BEL3:22:034:48 12.5363SEHREBECQ
Vos photos gr?ce ? Sportograf244.2319VOLCKAERT Tom29BEL3:22:044:48 12.5364SEHGELUWE
Vos photos gr?ce ? Sportograf245.1703RONSYN Mark38BEL3:22:044:48 12.5353M35ANTWERPEN
Vos photos gr?ce ? Sportograf246.1933ULRICHS Jochen40BEL3:22:064:48 12.5356M40GENK
Vos photos gr?ce ? Sportograf247.16DEMEULEMEESTER Frank49BEL3:22:154:48 12.5240M45BRUGGE KOOLKERKE
Vos photos gr?ce ? Sportograf248.138AMBROOS Mario45BEL3:22:184:48 12.5241M45ANTWERPEN
Vos photos gr?ce ? Sportograf249.2158VANDEURSEN Thijs32BEL3:22:214:48 12.5165SEHGENT
Vos photos gr?ce ? Sportograf250.555DE LAENDER Nico44BEL3:22:274:48 12.5157M40BRUGGE
Vos photos gr?ce ? Sportograf251.686DEJAEGHER Bart47BEL3:22:304:48 12.5042M45DIKSMUIDE
Vos photos gr?ce ? Sportograf252.486DAMBOIS Thierry48BEL3:22:314:48 12.5043M45REVES
Vos photos gr?ce ? Sportograf253.2198VANMULLEM Lode39BEL3:22:414:49 12.4954M35SINT-MICHIELS
Vos photos gr?ce ? Sportograf254.635DE WOLF Thomas37BEL3:22:564:49 12.4855M35OOSTAKKER
Vos photos gr?ce ? Sportograf255.2192VANHOORN Lenhard36BEL3:23:074:49 12.4656M35ROOSDAAL
Vos photos gr?ce ? Sportograf256.2470PETRU Farcas53BEL3:23:084:49 12.4625M50LA LOUVIÈRE
Vos photos gr?ce ? Sportograf257.1801SMET Bart44BEL3:23:114:49 12.4658M40REKKEM
Vos photos gr?ce ? Sportograf258.1091HELLUIN Mickael35FRA3:23:144:49 12.4657M35FORT-MARDYCK
Vos photos gr?ce ? Sportograf259.1228LABE Georges Yves47FRA3:23:164:50 12.4644M45COUDEKERQUE BRANCHE
Vos photos gr?ce ? Sportograf260.920FFERREIRA Sandrine43FRA3:23:164:50 12.463F40COUDEKERQUE BRANCHE
Vos photos gr?ce ? Sportograf261.2468DEBACKER Dieter47BEL3:23:174:50 12.4545M45TIELT
Vos photos gr?ce ? Sportograf262.604DE RYCKERE Sam31BEL3:23:234:50 12.4566SEHIZEGEM
Vos photos gr?ce ? Sportograf263.1088HAYEN Cedric42BEL3:23:244:50 12.4559M40STERREBEEK
Vos photos gr?ce ? Sportograf264.1113HIPKISS Jack22GBR3:23:264:50 12.4567SEHLEEDS
Vos photos gr?ce ? Sportograf265.2143VANDEPITTE Hendrik29BEL3:23:314:50 12.4468SEHOOSTKAMP
Vos photos gr?ce ? Sportograf266.1485MOERMAN Thomas25BEL3:23:344:50 12.4469SEHDUFFEL
Vos photos gr?ce ? Sportograf267.2155VANDERVEKEN Stefaan52BEL3:23:454:50 12.4326M50LOCHRISTI
Vos photos gr?ce ? Sportograf268.2167VANDEWIELE Bert39BEL3:23:454:50 12.4358M35SINT-ANDRIES
Vos photos gr?ce ? Sportograf269.308BRACKMAN Thierry47BEL3:23:464:50 12.4246M45DE PANNE
Vos photos gr?ce ? Sportograf270.2334WALLYN Romain32FRA3:23:464:50 12.4270SEHDUNKERQUE
Vos photos gr?ce ? Sportograf271.1143HUYGHE Stefaan48BEL3:23:464:50 12.4247M45ROESELARE
Vos photos gr?ce ? Sportograf272.687DEJAEGHERE Steven31BEL3:23:524:50 12.4271SEHLICHTERVEKDE
Vos photos gr?ce ? Sportograf273.1215KLOS Marcin41POL3:23:554:50 12.4260M40WOLUWE-SAINT-PIERRE
Vos photos gr?ce ? Sportograf274.1774SCOUBEAU Henri50BEL3:23:564:50 12.4127M50SOIGNIES
Vos photos gr?ce ? Sportograf275.111CLAIREMBOURG Laurent45BEL3:24:024:51 12.4148M45LILLOIS
Vos photos gr?ce ? Sportograf276.1326LIEVENS Geert53BEL3:24:054:51 12.4128M50WETTEREN
Vos photos gr?ce ? Sportograf277.1430MECHELAERE Dirk52BEL3:24:124:51 12.4029M50BRUGGE
Vos photos gr?ce ? Sportograf278.1038GORIS Wim39BEL3:24:164:51 12.3959M35TURNHOUT
Vos photos gr?ce ? Sportograf279.89DE WIT Dimitry40BEL3:24:184:51 12.3961M40ZEEBRUGGE
Vos photos gr?ce ? Sportograf280.480CUSSE Kevin32BEL3:24:244:51 12.3972SEHQUÉVY-LE-PETIT
Vos photos gr?ce ? Sportograf281.1057GUILLAUME Pierre Emmanuel49BEL3:24:294:51 12.3849M45LOUVAIN LA NEUVE
Vos photos gr?ce ? Sportograf282.295BOUDRY Luc57BEL3:24:394:52 12.375M55AARTSELAAR
Vos photos gr?ce ? Sportograf283.1939VALETTE Stefaan45BEL3:24:474:52 12.3650M45GENT
Vos photos gr?ce ? Sportograf284.478CULOT Jean-Marc53BEL3:24:474:52 12.3630M50LA HESTRE
Vos photos gr?ce ? Sportograf285.506DE BOECK Andy37BEL3:24:514:52 12.3660M35MECHELEN
Vos photos gr?ce ? Sportograf286.437COOLS Tom38BEL3:24:534:52 12.3661M35ZEDELGEM
Vos photos gr?ce ? Sportograf287.2136VANDENBUSSCHE Ben34BEL3:25:004:52 12.3573SEHSINT-ANDRIES
Vos photos gr?ce ? Sportograf288.2050VAN KERSCHAEVER Stijn35BEL3:25:044:52 12.3562M35VURSTE
Vos photos gr?ce ? Sportograf289.572DE MEY Jan41BEL3:25:114:52 12.3462M40DENDERMONDE
Vos photos gr?ce ? Sportograf290.698DELANGE Bert38BEL3:25:134:52 12.3463M35IZEGEM
Vos photos gr?ce ? Sportograf291.1514NEILL Simon48GBR3:25:144:52 12.3451M45BXL
Vos photos gr?ce ? Sportograf292.722DELVIGNE Julien32BEL3:25:214:53 12.3374SEHTEMPLEUVE
Vos photos gr?ce ? Sportograf293.1726RYCKX Andries30BEL3:25:294:53 12.3275SEHHEVERLEE
Vos photos gr?ce ? Sportograf294.1553PAMFILIE Paul39ROU3:25:294:53 12.3264M35BLANKENBERGE
Vos photos gr?ce ? Sportograf295.1691ROELENS Ruben37BEL3:25:354:53 12.3265M35IZEGEM
Vos photos gr?ce ? Sportograf296.2229VERBRUGGHE Stefaan45BEL3:25:464:53 12.3052M45OOSTKAMP
Vos photos gr?ce ? Sportograf297.573DE MEY Jeffrey33BEL3:25:534:53 12.3076SEHOEDELEM
Vos photos gr?ce ? Sportograf298.974GEEDTS David30BEL3:25:544:53 12.3077SEHMENEN
Vos photos gr?ce ? Sportograf299.453COSTE Florent47FRA3:25:554:53 12.3053M45AVIGNON
Vos photos gr?ce ? Sportograf300.1272LE ROUGE Antoine36FRA3:25:594:53 12.2966M35CHERENG
Vos photos gr?ce ? Sportograf301.242BLANCKE Pieter26BEL3:26:004:53 12.2978SEHAALTER
Vos photos gr?ce ? Sportograf302.283BORMS Jelrik29BEL3:26:014:53 12.2979SEHEEKLO
Vos photos gr?ce ? Sportograf303.509DE BRABANTER Wend43BEL3:26:024:53 12.2963M40MERE
Vos photos gr?ce ? Sportograf304.1454MESSEYNE Peter38BEL3:26:024:53 12.2967M35GITS
Vos photos gr?ce ? Sportograf305.2160VANDEVELDE Birger37BEL3:26:024:53 12.2968M35BRUGGE
Vos photos gr?ce ? Sportograf306.208BELS Wesley39BEL3:26:064:54 12.2869M35NIEUWKERKEN
Vos photos gr?ce ? Sportograf307.1477MINNEBO Arne51BEL3:26:064:54 12.2831M50BRUGGE
Vos photos gr?ce ? Sportograf308.1743SAVAETE Peter55BEL3:26:084:54 12.286M55SINT-MICHIELS
Vos photos gr?ce ? Sportograf309.1744SAVAETE Patrick57BEL3:26:104:54 12.287M55BRUGGE
Vos photos gr?ce ? Sportograf310.2314VLAEMINCK Thierry42BEL3:26:134:54 12.2864M40SINT-MARTENS-LATEM
Vos photos gr?ce ? Sportograf311.678DEDUYTSCHE Wim32BEL3:26:144:54 12.2880SEHBLANKENBERGE
Vos photos gr?ce ? Sportograf312.1068HAGHEDOOREN Hendrik34BEL3:26:174:54 12.2781SEHIEPER
Vos photos gr?ce ? Sportograf313.1927TRUWANT Ward23BEL3:26:184:54 12.2782SEHROESELARE
Vos photos gr?ce ? Sportograf314.346CALLENS Ruben34BEL3:26:194:54 12.2783SEHOUDENAARDE
Vos photos gr?ce ? Sportograf315.2215VELLA David40BEL3:26:234:54 12.2765M40DE HAAN
Vos photos gr?ce ? Sportograf316.898ENGELS Kenny38BEL3:26:234:54 12.2770M35ZINGEM
Vos photos gr?ce ? Sportograf317.2252VERHELST Hein40BEL3:26:244:54 12.2766M40GITS
Vos photos gr?ce ? Sportograf318.783DESOETE Bart43BEL3:26:264:54 12.2667M40MERELBEKE
Vos photos gr?ce ? Sportograf319.1698ROGIERS Tim42BEL3:26:274:54 12.2668M40BERLARE
Vos photos gr?ce ? Sportograf320.1053GUELTON David36BEL3:26:294:54 12.2671M35MONS
Vos photos gr?ce ? Sportograf321.155AVEREYN Luc58BEL3:26:324:54 12.268M55ROESELARE
Vos photos gr?ce ? Sportograf322.275BONAMIE Davey31BEL3:26:324:54 12.2684SEHOOSTKAMP
Vos photos gr?ce ? Sportograf323.1957VAN BUYNDER Kris42BEL3:26:364:54 12.2569M40HEVERLEE
Vos photos gr?ce ? Sportograf324.2126VANDEN BUSSCHE Christoffel55BEL3:26:374:54 12.259M55BRUGGE
Vos photos gr?ce ? Sportograf325.1719ROZENDAL J47NLD3:26:414:54 12.2554M45BAARN
Vos photos gr?ce ? Sportograf326.88DE VOS Marc48BEL3:26:444:54 12.2555M45ASSEBROEK
Vos photos gr?ce ? Sportograf327.1277LEBRUN Ludovic46FRA3:26:444:54 12.2556M45ARLEUX EN GOHELLE
Vos photos gr?ce ? Sportograf328.2065MARIEN Luc56BEL3:26:484:55 12.2410M55HERSELT
Vos photos gr?ce ? Sportograf329.1072HAMELS Cor52NLD3:26:564:55 12.2432M50HENDRIK-IDO-AMBACHT
Vos photos gr?ce ? Sportograf330.2327VUYLSTEKE Bart40BEL3:26:584:55 12.2370M40SINT ELOOIS WINKEL
Vos photos gr?ce ? Sportograf331.1707ROOTHOOFT Kris49BEL3:27:004:55 12.2357M45HULSHOUT
Vos photos gr?ce ? Sportograf332.397FCLAERBOUT Peggy46BEL3:27:034:55 12.231F45BRUGGE
Vos photos gr?ce ? Sportograf333.820D'HELFT Stefaan47BEL3:27:044:55 12.2358M45DEERLIJK
Vos photos gr?ce ? Sportograf334.1381MAHIEU Wim45BEL3:27:204:55 12.2159M45JABBEKE
Vos photos gr?ce ? Sportograf335.873FDUNCAN Linda28GBR3:27:234:55 12.214SEFGLASGOW
Vos photos gr?ce ? Sportograf336.872FDUNCAN Elaine26GBR3:27:234:55 12.215SEFSHEFFIELD
Vos photos gr?ce ? Sportograf337.290BOSMANS Jonathan28BEL3:27:304:56 12.2085SEHWERCHTER
Vos photos gr?ce ? Sportograf338.1465MICHIELS Joran27BEL3:27:404:56 12.1986SEHKESSEL-LO
Vos photos gr?ce ? Sportograf339.433CONINX Carl29BEL3:27:444:56 12.1987SEHWESTMALLE
Vos photos gr?ce ? Sportograf340.1081HARDY Michael45BEL3:27:494:56 12.1860M45BEAUMONT
Vos photos gr?ce ? Sportograf341.1883TAVERNIER Wouter37BEL3:27:504:56 12.1872M35BRUGGE
Vos photos gr?ce ? Sportograf342.1273LEBACQ Louis36BEL3:27:504:56 12.1873M35BRUXELLES
Vos photos gr?ce ? Sportograf343.950FRAGUAS Roberto28PRT3:27:544:56 12.1888SEHASSEBROEK
Vos photos gr?ce ? Sportograf344.831DIERKENS Jens30BEL3:27:584:56 12.1789SEHARDOOIE
Vos photos gr?ce ? Sportograf345.590DE PRYCKER Vincent39BEL3:28:034:56 12.1774M35NIEUWKERKEN-WAAS
Vos photos gr?ce ? Sportograf346.972GASTMANS Kenny30BEL3:28:064:56 12.1790SEHOPWIJK
Vos photos gr?ce ? Sportograf347.1233LAGAE Erik39BEL3:28:064:56 12.1775M35SINT-AMANDSBERG
Vos photos gr?ce ? Sportograf348.787DESPRES Didier55FRA3:28:204:57 12.1511M55LOMME
Vos photos gr?ce ? Sportograf349.451COSSON Benoit39FRA3:28:214:57 12.1576M35LILLE
Vos photos gr?ce ? Sportograf350.285BORZEE Christophe39BEL3:28:224:57 12.1577M35MARCHE-LEZ-ECAUSSINNES
Vos photos gr?ce ? Sportograf351.2482DENYS Florent36FRA3:28:234:57 12.1578M35FRANCE
Vos photos gr?ce ? Sportograf352.508DE BRABANDER Pascal45BEL3:28:244:57 12.1561M45BRUGGE
Vos photos gr?ce ? Sportograf353.1708ROOZE Corentin28BEL3:28:244:57 12.1591SEHMOUSCRON
Vos photos gr?ce ? Sportograf354.250BLOMME Franck49FRA3:28:244:57 12.1562M45HARDIFORT
Vos photos gr?ce ? Sportograf355.312BRAL Aynsley36BEL3:28:264:57 12.1579M35IZEGEM
Vos photos gr?ce ? Sportograf356.628DE WILDE Cederic33BEL3:28:374:57 12.1492SEHDE HAAN
Vos photos gr?ce ? Sportograf357.112HOUBEN Raphael41BEL3:28:384:57 12.1371M40BRAINE L'ALLEUD
Vos photos gr?ce ? Sportograf358.1112HINDRYCKX Siebe31BEL3:28:484:57 12.1393SEHBRUGGE
Vos photos gr?ce ? Sportograf359.2345WEEMAES Michiel40BEL3:28:494:57 12.1272M40GENT
Vos photos gr?ce ? Sportograf360.655DECAESTECKER Vincent45BEL3:28:504:57 12.1263M45IEPER
Vos photos gr?ce ? Sportograf361.1913TIRECHE Malik30FRA3:28:504:57 12.1294SEHFOUG
Vos photos gr?ce ? Sportograf362.1675REYSERHOVE Sam33BEL3:28:524:58 12.1295SEHBEERNEM
Vos photos gr?ce ? Sportograf363.513FDE BRUYCKER Melina37BEL3:28:544:58 12.121F35EEKLO
Vos photos gr?ce ? Sportograf364.1732SALAZAR Noel44BEL3:28:544:58 12.1273M40BRUSSEL
Vos photos gr?ce ? Sportograf365.176BARBIER Koen38BEL3:28:564:58 12.1280M35SINT-KRUIS
Vos photos gr?ce ? Sportograf366.924FEVERY Wouter35BEL3:29:014:58 12.1181M35BRUGGE
Vos photos gr?ce ? Sportograf367.1441MELOEN Jean-Pierre52NLD3:29:034:58 12.1133M50RIEME
Vos photos gr?ce ? Sportograf368.1136HURTECANT Bart34BEL3:29:084:58 12.1196SEHBEERNEM
Vos photos gr?ce ? Sportograf369.773DESCHOEMACKER Sam42BEL3:29:084:58 12.1174M40HERTSBERGE
Vos photos gr?ce ? Sportograf370.1281LECOMTE Olivier32FRA3:29:104:58 12.1097SEHLOUVAIN-LA-NEUVE
Vos photos gr?ce ? Sportograf371.1977FVAN DE WIEL Anne-Marie49NLD3:29:114:58 12.102F45NIJMEGEN
Vos photos gr?ce ? Sportograf372.2292FVERVAEKE Ine43BEL3:29:134:58 12.104F40BERTEM
Vos photos gr?ce ? Sportograf373.1910THYSSEN Ivan58BEL3:29:154:58 12.1012M55SINT-KRUIS ( BRUGGE)
Vos photos gr?ce ? Sportograf374.38DECANCQ Tatian44BEL3:29:164:58 12.1075M40ROESELARE
Vos photos gr?ce ? Sportograf375.782DESODT Jan54BEL3:29:184:58 12.1034M50WERVIK
Vos photos gr?ce ? Sportograf376.2148VANDER MEIREN Thijs32BEL3:29:224:58 12.0998SEHROESELARE
Vos photos gr?ce ? Sportograf377.67DEPOORTERE Christophe48BEL3:29:264:58 12.0964M45BOIS DE DESSINES
Vos photos gr?ce ? Sportograf378.792DESTREBECQ Bertrand50BEL3:29:304:58 12.0835M50ERQUENNES
Vos photos gr?ce ? Sportograf379.652DEBURGHGRAEVE Steven39BEL3:29:384:59 12.0882M35ROESELARE
Vos photos gr?ce ? Sportograf380.1031GOOSSENS Geert38BEL3:29:384:59 12.0883M35ASSE
Vos photos gr?ce ? Sportograf381.2179VANHAECHT Stef29BEL3:29:404:59 12.0899SEHWINKSELE
Vos photos gr?ce ? Sportograf382.2073VAN PEER Thomas29BEL3:29:474:59 12.07100SEHEDEGEM
Vos photos gr?ce ? Sportograf383.1478MIRAGLIA Alain53FRA3:29:504:59 12.0736M50TETEGHEM
Vos photos gr?ce ? Sportograf384.1393MALVOISIN Jérôme33BEL3:30:034:59 12.05101SEHTOURNAI
Vos photos gr?ce ? Sportograf385.775DESEURE Kris51BEL3:30:134:59 12.0437M50IZEGEM
Vos photos gr?ce ? Sportograf386.998GHILLEBERT Stef24BEL3:30:164:59 12.04102SEHGENT
Vos photos gr?ce ? Sportograf387.1755SCHELLEKENS Joost22BEL3:30:174:59 12.04103SEHSCHELLE
Vos photos gr?ce ? Sportograf388.305BOUTENS Jonas39BEL3:30:185:00 12.0484M35BRUGGE
Vos photos gr?ce ? Sportograf389.1344LORGE Jean Marc51BEL3:30:275:00 12.0338M50EGHEZEE
Vos photos gr?ce ? Sportograf390.1214KLOEK Patrick53BEL3:30:305:00 12.0339M50ANTWERPEN
Vos photos gr?ce ? Sportograf391.721DELRUE Steven33BEL3:30:355:00 12.02104SEHBRUGGE
Vos photos gr?ce ? Sportograf392.2524ANTHONI Jurgen44BEL3:30:355:00 12.0276M40NIEL
Vos photos gr?ce ? Sportograf393.1633POULET Jean Luc54FRA3:30:365:00 12.0240M50HAZEBROUCK
Vos photos gr?ce ? Sportograf394.569DE MEULENAERE Rik48BEL3:30:385:00 12.0265M45OOSTKAMP
Vos photos gr?ce ? Sportograf395.421COEN Ivan46BEL3:30:395:00 12.0266M45OOSTNIEUWKERKE
Vos photos gr?ce ? Sportograf396.709DELEN Damien42BEL3:30:395:00 12.0277M40MORTSEL
Vos photos gr?ce ? Sportograf397.676DECRAENE Glenn26BEL3:30:405:00 12.02105SEHMOEN
Vos photos gr?ce ? Sportograf398.8NEIRYNCK Gunter40BEL3:30:425:00 12.0278M40HOEILAART
Vos photos gr?ce ? Sportograf399.7GILLIJNS Matthias39BEL3:30:425:00 12.0285M35OVERIJSE
Vos photos gr?ce ? Sportograf400.9TAYMANS Christophe45BEL3:30:455:00 12.0167M45OVERIJSE
Vos photos gr?ce ? Sportograf401.2056FVAN LANDSCHOOT Gerardine43BEL3:30:465:00 12.015F40ADEGEM
Vos photos gr?ce ? Sportograf402.523DE COCK Stef43BEL3:30:485:00 12.0179M40TERVUREN
Vos photos gr?ce ? Sportograf403.2231VERCAEMPT Koen48BEL3:30:505:00 12.0168M45ROESELARE
Vos photos gr?ce ? Sportograf404.708DELEMOTTE Bertrand51FRA3:30:535:00 12.0141M50COMINES
Vos photos gr?ce ? Sportograf405.51VERCAMMEN Hans52BEL3:30:575:00 12.0042M50ROESELARE
Vos photos gr?ce ? Sportograf406.1818SOTO Antoine47GBR3:30:585:00 12.0069M45IXELLES
Vos photos gr?ce ? Sportograf407.1360MACREZ David42FRA3:31:065:01 11.9980M40OISY
Vos photos gr?ce ? Sportograf408.96BAEYENS Pascal38BEL3:31:095:01 11.9986M35BRUGGE
Vos photos gr?ce ? Sportograf409.1673REUTER Sébastien27BEL3:31:135:01 11.99106SEHFLOBECQ
Vos photos gr?ce ? Sportograf410.2270VERMEERSCH Jean-Luc45BEL3:31:155:01 11.9870M45SINT-DENIJS
Vos photos gr?ce ? Sportograf411.956FREDERIX Filip50BEL3:31:165:01 11.9843M50SINT-TRUIDEN
Vos photos gr?ce ? Sportograf412.1731SAGAERT Dries29BEL3:31:175:01 11.98107SEHZANDVOORDE
Vos photos gr?ce ? Sportograf413.724DEMASEURE Geert30BEL3:31:195:01 11.98108SEHWEYWERTZ
Vos photos gr?ce ? Sportograf414.1768SCHRAUWEN Dominiek61BEL3:31:215:01 11.982M60RUDDERVOORDE
Vos photos gr?ce ? Sportograf415.1257LARIDON Nick29BEL3:31:215:01 11.98109SEHSINT-KRUIS
Vos photos gr?ce ? Sportograf416.1533NULENS Geert51BEL3:31:255:01 11.9844M50STEVOORT
Vos photos gr?ce ? Sportograf417.518DE CAT Peter43BEL3:31:255:01 11.9881M40HAACHT
Vos photos gr?ce ? Sportograf418.785DESOT Miguel42BEL3:31:265:01 11.9782M40ELSENE
Vos photos gr?ce ? Sportograf419.2171VANDEWIELE Tom47BEL3:31:275:01 11.9771M45ST-ANDRIES
Vos photos gr?ce ? Sportograf420.2088CLOBERT Martin Roger24BEL3:31:275:01 11.97110SEHPROFONDEVILLE
Vos photos gr?ce ? Sportograf421.539DE FEYTER Nick31BEL3:31:275:01 11.97111SEHDENDERMONDE
Vos photos gr?ce ? Sportograf422.341BUYSE Pieterjan35BEL3:31:275:01 11.9787M35DENDERMONDE
Vos photos gr?ce ? Sportograf423.292BOSTOEN Karel37BEL3:31:315:01 11.9788M35BRUGGE
Vos photos gr?ce ? Sportograf424.921FERTEIN Bjorn39BEL3:31:425:02 11.9689M35WEVELGEM
Vos photos gr?ce ? Sportograf425.1481MOENS Maarten40BEL3:31:455:02 11.9683M40BUGGENHOUT
Vos photos gr?ce ? Sportograf426.2519FTIMMERMAN Sandra48BEL3:31:535:02 11.953F45OOSTENDE
Vos photos gr?ce ? Sportograf427.2518PROVOST Rik54BEL3:31:545:02 11.9545M50OOSTENDE
Vos photos gr?ce ? Sportograf428.2315VLIEBERGH Hendrik60BEL3:32:005:02 11.943M60EREMBODEGEM
Vos photos gr?ce ? Sportograf429.649DEBROUWERE Maarten27BEL3:32:025:02 11.94112SEHZEDELGEM
Vos photos gr?ce ? Sportograf430.814DEXTERS Noël55BEL3:32:145:02 11.9313M55MAASMECHELEN
Vos photos gr?ce ? Sportograf431.2085VAN STAPPEN Jelle36BEL3:32:145:02 11.9390M35MELSELE
Vos photos gr?ce ? Sportograf432.2025VAN ENGELAND Wim49BEL3:32:155:02 11.9372M45ONZE LIEVE VROUW WAVER
Vos photos gr?ce ? Sportograf433.1243LAMIERE Randy32BEL3:32:235:02 11.92113SEHHEULE
Vos photos gr?ce ? Sportograf434.1784SEYNAEVE Bert43BEL3:32:265:03 11.9284M40IZEGEM
Vos photos gr?ce ? Sportograf435.941FORY Glenn29BEL3:32:285:03 11.92114SEHSPALBEEK
Vos photos gr?ce ? Sportograf436.2264VERLINDE Steven48BEL3:32:295:03 11.9273M45ICHTEGEM
Vos photos gr?ce ? Sportograf437.10DEBEUF Vincent40BE3:32:335:03 11.9185M40GELUWE
Vos photos gr?ce ? Sportograf438.258BLYWEERT Wim40BEL3:32:345:03 11.9186M40GONTRODE
Vos photos gr?ce ? Sportograf439.254BLONDEEL Bert39BEL3:32:345:03 11.9191M35BRUGGE
Vos photos gr?ce ? Sportograf440.2509VER EECKE Koen38BEL3:32:345:03 11.9192M35MEULEBEKE
Vos photos gr?ce ? Sportograf441.861DUERINCK Peter47BEL3:32:365:03 11.9174M45DENDERMONDE
Vos photos gr?ce ? Sportograf442.2527KERKHOF Flor37BEL3:32:365:03 11.9193M35BRUGGE SINT KRUIS
Vos photos gr?ce ? Sportograf443.1704ROOIJACKERS Emil44NLD3:32:385:03 11.9187M40NIJMEGEN
Vos photos gr?ce ? Sportograf444.512DE BRUIN Filip44BEL3:32:395:03 11.9188M40HOEVENEN
Vos photos gr?ce ? Sportograf445.1521NEYT Anthony33BEL3:32:425:03 11.90115SEHOXFORD
Vos photos gr?ce ? Sportograf446.494DAVELOOSE Pieter30BEL3:32:445:03 11.90116SEHASSEBROEK
Vos photos gr?ce ? Sportograf447.1252LANNOO Lorenz33BEL3:32:455:03 11.90117SEHMEULEBEKE
Vos photos gr?ce ? Sportograf448.134ALLIOTTE Manuel31FRA3:32:455:03 11.90118SEHHERGNIES
Vos photos gr?ce ? Sportograf449.447CORTVRINT Grégory43BEL3:32:455:03 11.9089M40MONTIGNIES SUR ROC
Vos photos gr?ce ? Sportograf450.2077VAN REYBROUCK Lieven44BEL3:32:465:03 11.9090M40BRUGGE
Vos photos gr?ce ? Sportograf451.2487DIELS Kristiaan54BEL3:32:475:03 11.9046M50KRUIBEKE
Vos photos gr?ce ? Sportograf452.113VAN TUIJCOM Benjamin27BEL3:32:495:03 11.90119SEHBRAINE L'ALLEUD
Vos photos gr?ce ? Sportograf453.2184VANHAERENTS Bert34BEL3:32:545:03 11.89120SEHSINT-AMANDSBERG
Vos photos gr?ce ? Sportograf454.110CASTEL Benjamin35FRA3:32:555:03 11.8994M35BRAINE L'ALLEUD
Vos photos gr?ce ? Sportograf455.1868SYRYN Filip53BEL3:32:555:03 11.8947M50VARSENARE
Vos photos gr?ce ? Sportograf456.906EVERAERT Robert52BEL3:32:565:03 11.8948M50DUFFEL
Vos photos gr?ce ? Sportograf457.1618POLO ROMERO Michel53BEL3:33:115:04 11.8849M50HARCHIES
Vos photos gr?ce ? Sportograf458.1623POPPE Lesley33BEL3:33:135:04 11.87121SEHSTEKENE
Vos photos gr?ce ? Sportograf459.654DECAESSTECKER Simon34BEL3:33:165:04 11.87122SEHZEDELGEM
Vos photos gr?ce ? Sportograf460.1996VAN DEN HEUVEL Michel50BEL3:33:165:04 11.8750M50KONINGSHOOIKT
Vos photos gr?ce ? Sportograf461.2180VANHAECHT Bert41BEL3:33:185:04 11.8791M40VILVOORDE
Vos photos gr?ce ? Sportograf462.2276VERNOIS Jean-Luc57FRA3:33:255:04 11.8614M55JOUARS PONTCHARTRAIN
Vos photos gr?ce ? Sportograf463.1409FMARTENS Anouk26BEL3:33:285:04 11.866SEFHARELBEKE
Vos photos gr?ce ? Sportograf464.659DECEUNINCK Dave35BEL3:33:305:04 11.8695M35OOSTENDE
Vos photos gr?ce ? Sportograf465.1221KOOPMANS Nico48BEL3:33:305:04 11.8675M45TESTELT
Vos photos gr?ce ? Sportograf466.1508NAETS Nick32BEL3:33:385:04 11.85123SEHITEGEM
Vos photos gr?ce ? Sportograf467.1621PONTI Angelo44BEL3:33:395:04 11.8592M40NIVELLES
Vos photos gr?ce ? Sportograf468.627DE WEERT Paul47BEL3:33:415:04 11.8576M45KNOKKE-HEIST
Vos photos gr?ce ? Sportograf469.1224KROES Jeroen44NLD3:33:445:04 11.8593M40AMERSFOORT
Vos photos gr?ce ? Sportograf470.403CLAEYS Sam27BEL3:33:455:04 11.85124SEHBEERNEM
Vos photos gr?ce ? Sportograf471.40DEHEM Kris36BEL3:33:455:04 11.8496M35ROESELARE
Vos photos gr?ce ? Sportograf472.206BEKEMANS Jeroen37BEL3:33:495:05 11.8497M35OOSTENDE
Vos photos gr?ce ? Sportograf473.863DUFOUR Dimitri36BEL3:33:515:05 11.8498M35ANTOING
Vos photos gr?ce ? Sportograf474.1230LACORRE Marc49FRA3:33:585:05 11.8377M45COURBEVOIE
Vos photos gr?ce ? Sportograf475.2479MAES Tom37BEL3:34:015:05 11.8399M35KAPELLEN
Vos photos gr?ce ? Sportograf476.1262LAUREYS Tim38BEL3:34:045:05 11.83100M35BRUSSEL (JETTE)
Vos photos gr?ce ? Sportograf477.256BLONDELLE Matthias27BEL3:34:055:05 11.83125SEHKOOLKERKE
Vos photos gr?ce ? Sportograf478.1196DERYCKERE Korneel Henri36BEL3:34:215:05 11.81101M35BRUGGE
Vos photos gr?ce ? Sportograf479.1405MARLIOT Christophe40BEL3:34:225:05 11.8194M40EVREGNIES
Vos photos gr?ce ? Sportograf480.712DELEU Wesley36BEL3:34:265:05 11.81102M35GITS
Vos photos gr?ce ? Sportograf481.1288LEGOUGE Franck50FRA3:34:345:06 11.8051M50CORNY-MACHEROMENIL
Vos photos gr?ce ? Sportograf482.987GEORGE Emmanuel38BEL3:34:345:06 11.80103M35DE HAAN
Vos photos gr?ce ? Sportograf483.1693ROELS Peter57BEL3:34:385:06 11.8015M55BRUGGE
Vos photos gr?ce ? Sportograf484.2520VAN SEBROECK Bruno48BEL3:34:395:06 11.7978M45WEERDE
Vos photos gr?ce ? Sportograf485.526DE COMMINES Luc60BEL3:34:425:06 11.794M60AALST
Vos photos gr?ce ? Sportograf486.6LIOEN Filip50BEL3:34:435:06 11.7952M50SINT-MICHIELS
Vos photos gr?ce ? Sportograf487.1649QUAEGEBEUR Jerome34FRA3:34:435:06 11.79126SEHMETEREN
Vos photos gr?ce ? Sportograf488.1917TOLPE Stefaan39BEL3:34:445:06 11.79104M35BLANKENBERGE
Vos photos gr?ce ? Sportograf489.349CALLEWAERT Thomas28BEL3:34:475:06 11.79127SEHBRUGGE
Vos photos gr?ce ? Sportograf490.56GATENBY Malcolm55GBR3:34:495:06 11.7916M55DUBAI
Vos photos gr?ce ? Sportograf491.1182JESPERS Gertjan28BEL3:34:535:06 11.78128SEHGENK
Vos photos gr?ce ? Sportograf492.894EMBO Kasper33BEL3:35:025:06 11.77129SEHICHTEGEM
Vos photos gr?ce ? Sportograf493.2287VERSTRAELEN Tim30BEL3:35:065:06 11.77130SEHGENT
Vos photos gr?ce ? Sportograf494.1530NOPPE Jonas34BEL3:35:105:06 11.77131SEHIZEGEM
Vos photos gr?ce ? Sportograf495.49VANHAUTE Bert38BEL3:35:165:07 11.76105M35ROESELARE
Vos photos gr?ce ? Sportograf496.45TALLIEU Gino47BEL3:35:205:07 11.7679M45ROESELARE
Vos photos gr?ce ? Sportograf497.1484MOERENHOUT Pierre46BEL3:35:225:07 11.7680M45SERSKAMP
Vos photos gr?ce ? Sportograf498.2528STEVENS Francis37BEL3:35:245:07 11.75106M35DAMME
Vos photos gr?ce ? Sportograf499.237BILLIET Jeroen37BEL3:35:245:07 11.75107M35BRUGGE
Vos photos gr?ce ? Sportograf500.1845STIENEN Rudi43BEL3:35:325:07 11.7595M40NEEROETEREN
DNF: abandon; DSQ: disqualifié; Vitesse en km/h
Bladzijde: [1] 2 3 4 5